Página principal
METAR-TAF:

METAR-TAF

Aeroportos :

Aeroporto Internacional Las Américas

Punta Caucedo, República Dominicana

latitude: 18-26N, longitude: 069-40W, altura: 18 m

Observação actual do tempo

O boletim foi feito há 27 minutos, às 23:00 UTC
Vento 4 kt de nor-nordeste
Temperatura 26°C
Humidade 74%
Pressão 1015 hPa
Visibilidade 10 km ou mais
Poucas nuvensa uma altura de 1800 ft

METAR: MDSD 022300Z 02004KT 9999 FEW018 26/21 Q1015

Hora: 19:27 (23:27 UTC)

Previsão

O boletim foi feito há 7 horas e 27 minutos, às 16:00 UTC
Previsão válida de 02 às 18 UTC a 03 às 18 UTC
Vento 8 kt de nordeste
Visibilidade 10 km ou mais
Nuvens dispersasa uma altura de 2000 ft

TAF: MDSD 021600Z 0218/0318 05008KT 9999 SCT020

Observações e previsões do tempo de mais de 4000 aeroportos (mensagens METAR e TAF).

As estações disponíveis são os pontos amarelos e vermelhos sobre o mapa.

Mova o rato sobre o mapa para ver o nome da estação.

Depois clique no ponto para visualizar as observações e previsões meteorológicas.

Para alterar o mapa : clique nos botões verdes com uma cruz preta para aumentar o zoom; no botão verde com uma pitada de zoom; ou nas setas verdes para mapas adjacentes.


METAR-TAF: